»·PEaware :: N973SE KSBP-KBFL

N973SE :: KSBP-KBFL

FLIGHT INFORMATION

Flight Status: Arrived
Operator: Privately registered:
United States
More flights under this callsign
Pilot: Stig E. (4778)
Aircraft: Unknown
(DA62)
More flights by this aircraft type
Origin: KSBP San Luis Co Regl
United States
Destination: KBFL Meadows
United States
More flights between these airports :: More routes between these airports
Route: FLW FASTO
File this flight plan on PilotEdge
Remarks:
Altitude:
(Current/Filed)
7,500ft
Speed:
(Current/Filed)
150kts
Departed: 04-Jul-18 01:33 AM
Arrived: 04-Jul-18 02:32 AM
Distance/Time
Traveled:
79nm/0:59
Distance/Time
To Go:
Arrived

Flight Plot

Page will automatically refresh every two minutes.

Flight plan parsing failed; only flown route is shown


Map Options




Map Legend


Flown Route
Filed Route
Departure Airport
Arrival Airport
Navaid (VOR, NDB)
Fix

Horizontal Profiles

Position Reports

Time Latitude Longitude Heading Altitude Ground
Speed
04-Jul-18 01:28 35.237404 -120.636669 304 204ft 0kts
04-Jul-18 01:29 35.237474 -120.636809 293 203ft 6kts
04-Jul-18 01:30 35.235145 -120.634981 123 210ft 22kts
04-Jul-18 01:32 35.233122 -120.631968 246 213ft 0kts
04-Jul-18 01:33 35.233122 -120.631968 246 213ft 0kts
04-Jul-18 01:34 35.236529 -120.639396 304 195ft 91kts
04-Jul-18 01:35 35.243552 -120.664655 217 1443ft 91kts
04-Jul-18 01:36 35.224254 -120.659035 124 2733ft 96kts
04-Jul-18 01:37 35.210138 -120.631106 123 3960ft 98kts
04-Jul-18 01:38 35.201307 -120.599686 99 5175ft 102kts
04-Jul-18 01:39 35.197163 -120.565230 101 6380ft 104kts
04-Jul-18 01:40 35.192460 -120.529845 102 7478ft 116kts
04-Jul-18 01:41 35.185479 -120.480497 101 7504ft 163kts
04-Jul-18 01:42 35.177340 -120.424059 101 7500ft 170kts
04-Jul-18 01:43 35.168943 -120.366749 101 7500ft 172kts
04-Jul-18 01:44 35.161022 -120.314476 102 7499ft 172kts
04-Jul-18 01:45 35.152322 -120.256993 101 7499ft 174kts
04-Jul-18 01:46 35.143576 -120.198636 101 7499ft 176kts
04-Jul-18 01:47 35.134790 -120.139880 101 7499ft 176kts
04-Jul-18 01:48 35.125973 -120.081047 101 7499ft 176kts
04-Jul-18 01:49 35.117083 -120.021912 100 7499ft 177kts
04-Jul-18 01:50 35.108186 -119.962917 100 7499ft 177kts
04-Jul-18 01:51 35.099243 -119.903786 100 7500ft 177kts
04-Jul-18 01:52 35.092418 -119.857049 92 7496ft 177kts
04-Jul-18 01:53 35.104879 -119.799159 73 7500ft 176kts
04-Jul-18 01:54 35.116852 -119.743209 74 7496ft 176kts
04-Jul-18 01:55 35.128256 -119.686540 75 7473ft 178kts
04-Jul-18 01:56 35.139708 -119.628255 75 7548ft 176kts
04-Jul-18 01:57 35.151161 -119.569285 75 7525ft 180kts
04-Jul-18 01:58 35.162767 -119.509243 74 7501ft 182kts
04-Jul-18 01:59 35.174393 -119.448909 74 7501ft 182kts
04-Jul-18 02:00 35.185943 -119.388778 74 7501ft 182kts
04-Jul-18 02:01 35.197219 -119.329287 76 7499ft 182kts
04-Jul-18 02:02 35.208478 -119.269051 75 7499ft 181kts
04-Jul-18 02:03 35.219865 -119.208861 75 7499ft 181kts
04-Jul-18 02:04 35.231207 -119.148991 75 7353ft 178kts
04-Jul-18 02:05 35.242303 -119.090281 74 6544ft 175kts
04-Jul-18 02:06 35.249175 -119.053903 74 6050ft 173kts
04-Jul-18 02:07 35.249175 -119.053903 74 6050ft 173kts
04-Jul-18 02:08 35.249175 -119.053903 74 6050ft 173kts
04-Jul-18 02:09 35.249175 -119.053903 74 6050ft 173kts
04-Jul-18 02:10 35.249175 -119.053903 74 6050ft 173kts
04-Jul-18 02:11 35.249175 -119.053903 74 6050ft 173kts
04-Jul-18 02:12 35.249175 -119.053903 74 6050ft 173kts
04-Jul-18 02:13 35.249175 -119.053903 74 6050ft 173kts
04-Jul-18 02:14 35.251670 -119.040689 74 5872ft 172kts
04-Jul-18 02:15 35.262264 -118.984945 73 4918ft 166kts
04-Jul-18 02:16 35.270618 -118.940481 73 4797ft 99kts
04-Jul-18 02:17 35.275744 -118.909971 73 4810ft 90kts
04-Jul-18 02:18 35.281576 -118.880175 47 4807ft 89kts
04-Jul-18 02:19 35.301248 -118.892528 309 4256ft 100kts
04-Jul-18 02:20 35.319837 -118.918251 315 3649ft 101kts
04-Jul-18 02:21 35.339599 -118.942553 317 3069ft 100kts
04-Jul-18 02:22 35.359377 -118.966402 317 2513ft 99kts
04-Jul-18 02:23 35.378646 -118.989599 318 1982ft 99kts
04-Jul-18 02:24 35.386900 -118.999542 318 1756ft 99kts
04-Jul-18 02:25 35.386900 -118.999542 318 1756ft 99kts
04-Jul-18 02:26 35.386900 -118.999542 318 1756ft 99kts
04-Jul-18 02:27 35.386900 -118.999542 318 1756ft 99kts
04-Jul-18 02:28 35.386900 -118.999542 318 1756ft 99kts
04-Jul-18 02:29 35.386900 -118.999542 318 1756ft 99kts
04-Jul-18 02:30 35.392685 -119.006516 318 1598ft 99kts
04-Jul-18 02:31 35.412267 -119.030130 318 1066ft 98kts
04-Jul-18 02:32 35.430100 -119.051660 318 588ft 88kts
04-Jul-18 02:33 35.438054 -119.059095 124 497ft 14kts
04-Jul-18 02:34 35.437956 -119.056508 231 497ft 0kts
04-Jul-18 02:35 35.437956 -119.056508 231 497ft 0kts
04-Jul-18 02:36 35.437956 -119.056508 231 497ft 0kts
04-Jul-18 02:37 35.437956 -119.056508 231 497ft 0kts
04-Jul-18 02:38 35.437956 -119.056508 231 497ft 0kts
04-Jul-18 02:38 35.437956 -119.056508 231 497ft 0kts
04-Jul-18 02:39 35.437956 -119.056508 231 497ft 0kts
04-Jul-18 02:40 35.437956 -119.056508 231 497ft 0kts
04-Jul-18 02:41 35.437956 -119.056508 231 497ft 0kts
04-Jul-18 02:42 35.437956 -119.056508 231 497ft 0kts
04-Jul-18 02:43 35.437956 -119.056508 231 497ft 0kts
04-Jul-18 02:44 35.437956 -119.056508 231 497ft 0kts
04-Jul-18 02:45 35.437956 -119.056508 231 497ft 0kts
04-Jul-18 02:46 35.437956 -119.056508 231 497ft 0kts

Navigation Log

Ident Type
Flight plan parsing failed, navigation log unavailable